sensor_id;sensor_type;location;lat;lon;timestamp;P1;durP1;ratioP1;P2;durP2;ratioP2
12253;SDS011;6189;52.526;13.390;2023-03-29T00:01:38;5.90;;;3.10;;
12253;SDS011;6189;52.526;13.390;2023-03-29T00:04:26;7.13;;;3.30;;
12253;SDS011;6189;52.526;13.390;2023-03-29T00:07:12;7.40;;;3.43;;
12253;SDS011;6189;52.526;13.390;2023-03-29T00:09:58;9.67;;;3.80;;
12253;SDS011;6189;52.526;13.390;2023-03-29T00:12:44;7.87;;;3.73;;
12253;SDS011;6189;52.526;13.390;2023-03-29T00:15:30;8.87;;;4.00;;
12253;SDS011;6189;52.526;13.390;2023-03-29T00:18:16;5.87;;;3.40;;
12253;SDS011;6189;52.526;13.390;2023-03-29T00:21:03;8.70;;;4.23;;
12253;SDS011;6189;52.526;13.390;2023-03-29T00:23:49;7.17;;;3.87;;
12253;SDS011;6189;52.526;13.390;2023-03-29T00:26:35;7.23;;;3.67;;
12253;SDS011;6189;52.526;13.390;2023-03-29T00:29:21;7.60;;;3.87;;
12253;SDS011;6189;52.526;13.390;2023-03-29T00:32:06;11.43;;;4.23;;
12253;SDS011;6189;52.526;13.390;2023-03-29T00:34:52;7.60;;;3.90;;
12253;SDS011;6189;52.526;13.390;2023-03-29T00:37:40;9.23;;;4.17;;
12253;SDS011;6189;52.526;13.390;2023-03-29T00:40:26;8.90;;;4.33;;
12253;SDS011;6189;52.526;13.390;2023-03-29T00:43:12;8.37;;;4.30;;
12253;SDS011;6189;52.526;13.390;2023-03-29T00:45:58;7.77;;;3.63;;
12253;SDS011;6189;52.526;13.390;2023-03-29T00:48:44;9.37;;;3.77;;
12253;SDS011;6189;52.526;13.390;2023-03-29T00:51:31;7.33;;;3.70;;
12253;SDS011;6189;52.526;13.390;2023-03-29T00:54:20;10.20;;;3.87;;
12253;SDS011;6189;52.526;13.390;2023-03-29T00:57:08;6.33;;;3.70;;
12253;SDS011;6189;52.526;13.390;2023-03-29T00:59:53;7.97;;;3.90;;
12253;SDS011;6189;52.526;13.390;2023-03-29T01:02:41;7.60;;;3.30;;
12253;SDS011;6189;52.526;13.390;2023-03-29T01:05:28;9.00;;;3.50;;
12253;SDS011;6189;52.526;13.390;2023-03-29T01:08:19;6.63;;;3.23;;
12253;SDS011;6189;52.526;13.390;2023-03-29T01:11:11;7.97;;;3.80;;
12253;SDS011;6189;52.526;13.390;2023-03-29T01:14:02;7.47;;;3.30;;
12253;SDS011;6189;52.526;13.390;2023-03-29T01:16:49;7.77;;;3.07;;
12253;SDS011;6189;52.526;13.390;2023-03-29T01:19:36;6.13;;;3.50;;
12253;SDS011;6189;52.526;13.390;2023-03-29T01:22:29;5.83;;;3.20;;
12253;SDS011;6189;52.526;13.390;2023-03-29T01:25:24;12.00;;;3.33;;
12253;SDS011;6189;52.526;13.390;2023-03-29T01:28:18;10.57;;;3.77;;
12253;SDS011;6189;52.526;13.390;2023-03-29T01:31:09;7.80;;;3.70;;
12253;SDS011;6189;52.526;13.390;2023-03-29T01:34:00;6.63;;;3.30;;
12253;SDS011;6189;52.526;13.390;2023-03-29T01:36:50;6.00;;;3.27;;
12253;SDS011;6189;52.526;13.390;2023-03-29T01:39:43;7.07;;;3.70;;
12253;SDS011;6189;52.526;13.390;2023-03-29T01:42:30;6.67;;;3.10;;
12253;SDS011;6189;52.526;13.390;2023-03-29T01:45:28;7.07;;;3.57;;
12253;SDS011;6189;52.526;13.390;2023-03-29T01:48:20;5.17;;;3.10;;
12253;SDS011;6189;52.526;13.390;2023-03-29T01:51:12;7.57;;;3.20;;
12253;SDS011;6189;52.526;13.390;2023-03-29T01:54:02;7.83;;;3.03;;
12253;SDS011;6189;52.526;13.390;2023-03-29T01:56:51;6.43;;;3.50;;
12253;SDS011;6189;52.526;13.390;2023-03-29T01:59:40;6.60;;;3.03;;
12253;SDS011;6189;52.526;13.390;2023-03-29T02:02:29;7.27;;;2.90;;
12253;SDS011;6189;52.526;13.390;2023-03-29T02:05:16;8.97;;;3.10;;
12253;SDS011;6189;52.526;13.390;2023-03-29T02:08:03;9.47;;;3.17;;
12253;SDS011;6189;52.526;13.390;2023-03-29T02:10:51;10.80;;;3.20;;
12253;SDS011;6189;52.526;13.390;2023-03-29T02:13:38;8.10;;;3.10;;
12253;SDS011;6189;52.526;13.390;2023-03-29T02:16:23;8.57;;;3.67;;
12253;SDS011;6189;52.526;13.390;2023-03-29T02:19:10;7.80;;;3.40;;
12253;SDS011;6189;52.526;13.390;2023-03-29T02:21:59;9.63;;;2.90;;
12253;SDS011;6189;52.526;13.390;2023-03-29T02:24:51;5.77;;;2.90;;
12253;SDS011;6189;52.526;13.390;2023-03-29T02:27:41;5.63;;;3.17;;
12253;SDS011;6189;52.526;13.390;2023-03-29T02:30:29;8.93;;;3.27;;
12253;SDS011;6189;52.526;13.390;2023-03-29T02:33:19;5.40;;;2.83;;
12253;SDS011;6189;52.526;13.390;2023-03-29T02:36:10;5.10;;;3.37;;
12253;SDS011;6189;52.526;13.390;2023-03-29T02:39:00;6.00;;;2.80;;
12253;SDS011;6189;52.526;13.390;2023-03-29T02:41:48;6.43;;;3.00;;
12253;SDS011;6189;52.526;13.390;2023-03-29T02:44:36;6.97;;;3.33;;
12253;SDS011;6189;52.526;13.390;2023-03-29T02:47:26;6.17;;;3.40;;
12253;SDS011;6189;52.526;13.390;2023-03-29T02:50:15;6.13;;;3.10;;
12253;SDS011;6189;52.526;13.390;2023-03-29T02:53:03;8.53;;;3.57;;
12253;SDS011;6189;52.526;13.390;2023-03-29T02:55:54;11.10;;;3.40;;
12253;SDS011;6189;52.526;13.390;2023-03-29T02:58:40;9.27;;;3.57;;
12253;SDS011;6189;52.526;13.390;2023-03-29T03:01:26;10.33;;;3.50;;
12253;SDS011;6189;52.526;13.390;2023-03-29T03:04:12;5.87;;;3.47;;
12253;SDS011;6189;52.526;13.390;2023-03-29T03:06:58;6.33;;;3.90;;
12253;SDS011;6189;52.526;13.390;2023-03-29T03:09:45;9.47;;;3.77;;
12253;SDS011;6189;52.526;13.390;2023-03-29T03:12:32;8.53;;;3.77;;
12253;SDS011;6189;52.526;13.390;2023-03-29T03:15:17;8.63;;;3.87;;
12253;SDS011;6189;52.526;13.390;2023-03-29T03:18:03;7.60;;;3.57;;
12253;SDS011;6189;52.526;13.390;2023-03-29T03:20:56;10.10;;;3.90;;
12253;SDS011;6189;52.526;13.390;2023-03-29T03:23:44;7.40;;;4.10;;
12253;SDS011;6189;52.526;13.390;2023-03-29T03:26:31;6.87;;;3.90;;
12253;SDS011;6189;52.526;13.390;2023-03-29T03:29:18;8.70;;;4.60;;
12253;SDS011;6189;52.526;13.390;2023-03-29T03:32:04;8.10;;;4.43;;
12253;SDS011;6189;52.526;13.390;2023-03-29T03:34:50;9.60;;;4.40;;
12253;SDS011;6189;52.526;13.390;2023-03-29T03:37:36;6.83;;;4.30;;
12253;SDS011;6189;52.526;13.390;2023-03-29T03:40:23;8.77;;;4.63;;
12253;SDS011;6189;52.526;13.390;2023-03-29T03:43:10;8.43;;;4.90;;
12253;SDS011;6189;52.526;13.390;2023-03-29T03:45:56;8.03;;;4.63;;
12253;SDS011;6189;52.526;13.390;2023-03-29T03:48:41;8.30;;;4.73;;
12253;SDS011;6189;52.526;13.390;2023-03-29T03:51:27;8.30;;;4.67;;
12253;SDS011;6189;52.526;13.390;2023-03-29T03:54:14;9.10;;;5.20;;
12253;SDS011;6189;52.526;13.390;2023-03-29T03:56:59;7.80;;;5.07;;
12253;SDS011;6189;52.526;13.390;2023-03-29T03:59:47;7.90;;;4.63;;
12253;SDS011;6189;52.526;13.390;2023-03-29T04:02:33;8.13;;;4.77;;
12253;SDS011;6189;52.526;13.390;2023-03-29T04:05:19;6.97;;;4.50;;
12253;SDS011;6189;52.526;13.390;2023-03-29T04:08:04;10.20;;;4.80;;
12253;SDS011;6189;52.526;13.390;2023-03-29T04:10:51;12.23;;;5.17;;
12253;SDS011;6189;52.526;13.390;2023-03-29T04:13:37;11.07;;;5.23;;
12253;SDS011;6189;52.526;13.390;2023-03-29T04:16:24;12.17;;;4.83;;
12253;SDS011;6189;52.526;13.390;2023-03-29T04:19:10;9.27;;;4.70;;
12253;SDS011;6189;52.526;13.390;2023-03-29T04:21:56;8.83;;;4.50;;
12253;SDS011;6189;52.526;13.390;2023-03-29T04:24:42;8.53;;;5.13;;
12253;SDS011;6189;52.526;13.390;2023-03-29T04:27:27;8.50;;;4.93;;
12253;SDS011;6189;52.526;13.390;2023-03-29T04:30:14;9.70;;;4.97;;
12253;SDS011;6189;52.526;13.390;2023-03-29T04:33:01;8.10;;;4.30;;
12253;SDS011;6189;52.526;13.390;2023-03-29T04:35:47;7.87;;;4.50;;
12253;SDS011;6189;52.526;13.390;2023-03-29T04:38:32;10.83;;;4.53;;
12253;SDS011;6189;52.526;13.390;2023-03-29T04:41:19;7.00;;;4.50;;
12253;SDS011;6189;52.526;13.390;2023-03-29T04:44:06;8.00;;;4.63;;
12253;SDS011;6189;52.526;13.390;2023-03-29T04:46:52;9.57;;;4.53;;
12253;SDS011;6189;52.526;13.390;2023-03-29T04:49:39;8.43;;;5.00;;
12253;SDS011;6189;52.526;13.390;2023-03-29T04:52:25;8.80;;;4.23;;
12253;SDS011;6189;52.526;13.390;2023-03-29T04:55:10;8.60;;;4.33;;
12253;SDS011;6189;52.526;13.390;2023-03-29T04:57:56;8.33;;;4.43;;
12253;SDS011;6189;52.526;13.390;2023-03-29T05:00:41;7.03;;;4.37;;
12253;SDS011;6189;52.526;13.390;2023-03-29T05:03:28;6.73;;;3.90;;
12253;SDS011;6189;52.526;13.390;2023-03-29T05:06:15;6.63;;;3.90;;
12253;SDS011;6189;52.526;13.390;2023-03-29T05:09:01;11.90;;;4.40;;
12253;SDS011;6189;52.526;13.390;2023-03-29T05:11:47;10.43;;;4.60;;
12253;SDS011;6189;52.526;13.390;2023-03-29T05:14:33;8.03;;;4.13;;
12253;SDS011;6189;52.526;13.390;2023-03-29T05:17:18;5.93;;;3.97;;
12253;SDS011;6189;52.526;13.390;2023-03-29T05:20:05;9.27;;;4.40;;
12253;SDS011;6189;52.526;13.390;2023-03-29T05:22:55;11.00;;;5.00;;
12253;SDS011;6189;52.526;13.390;2023-03-29T05:25:40;6.63;;;4.23;;
12253;SDS011;6189;52.526;13.390;2023-03-29T05:28:26;9.67;;;4.27;;
12253;SDS011;6189;52.526;13.390;2023-03-29T05:31:12;11.20;;;4.10;;
12253;SDS011;6189;52.526;13.390;2023-03-29T05:33:58;10.47;;;4.43;;
12253;SDS011;6189;52.526;13.390;2023-03-29T05:36:44;10.10;;;4.13;;
12253;SDS011;6189;52.526;13.390;2023-03-29T05:39:33;9.53;;;4.03;;
12253;SDS011;6189;52.526;13.390;2023-03-29T05:42:20;9.03;;;4.63;;
12253;SDS011;6189;52.526;13.390;2023-03-29T05:45:06;11.67;;;4.93;;
12253;SDS011;6189;52.526;13.390;2023-03-29T05:47:53;8.87;;;5.07;;
12253;SDS011;6189;52.526;13.390;2023-03-29T05:50:40;9.77;;;4.57;;
12253;SDS011;6189;52.526;13.390;2023-03-29T05:53:26;9.03;;;4.23;;
12253;SDS011;6189;52.526;13.390;2023-03-29T05:56:13;9.40;;;4.73;;
12253;SDS011;6189;52.526;13.390;2023-03-29T05:58:59;9.73;;;4.57;;
12253;SDS011;6189;52.526;13.390;2023-03-29T06:01:45;9.83;;;4.70;;
12253;SDS011;6189;52.526;13.390;2023-03-29T06:04:30;8.50;;;4.37;;
12253;SDS011;6189;52.526;13.390;2023-03-29T06:07:16;9.50;;;4.10;;
12253;SDS011;6189;52.526;13.390;2023-03-29T06:10:02;13.23;;;4.93;;
12253;SDS011;6189;52.526;13.390;2023-03-29T06:12:49;8.00;;;4.30;;
12253;SDS011;6189;52.526;13.390;2023-03-29T06:15:35;10.63;;;5.23;;
12253;SDS011;6189;52.526;13.390;2023-03-29T06:18:20;13.27;;;4.70;;
12253;SDS011;6189;52.526;13.390;2023-03-29T06:21:07;8.53;;;4.90;;
12253;SDS011;6189;52.526;13.390;2023-03-29T06:23:53;12.03;;;4.60;;
12253;SDS011;6189;52.526;13.390;2023-03-29T06:26:39;7.23;;;4.37;;
12253;SDS011;6189;52.526;13.390;2023-03-29T06:29:26;8.57;;;4.47;;
12253;SDS011;6189;52.526;13.390;2023-03-29T06:32:11;13.97;;;5.27;;
12253;SDS011;6189;52.526;13.390;2023-03-29T06:34:57;7.40;;;4.37;;
12253;SDS011;6189;52.526;13.390;2023-03-29T06:37:43;9.67;;;4.73;;
12253;SDS011;6189;52.526;13.390;2023-03-29T06:40:33;12.70;;;5.47;;
12253;SDS011;6189;52.526;13.390;2023-03-29T06:43:20;10.87;;;4.63;;
12253;SDS011;6189;52.526;13.390;2023-03-29T06:46:07;8.97;;;5.43;;
12253;SDS011;6189;52.526;13.390;2023-03-29T06:48:54;13.30;;;5.53;;
12253;SDS011;6189;52.526;13.390;2023-03-29T06:51:40;7.80;;;4.60;;
12253;SDS011;6189;52.526;13.390;2023-03-29T06:54:26;9.80;;;5.27;;
12253;SDS011;6189;52.526;13.390;2023-03-29T06:57:11;11.17;;;5.17;;
12253;SDS011;6189;52.526;13.390;2023-03-29T06:59:57;6.90;;;4.50;;
12253;SDS011;6189;52.526;13.390;2023-03-29T07:03:03;13.80;;;5.50;;
12253;SDS011;6189;52.526;13.390;2023-03-29T07:05:50;15.23;;;5.67;;
12253;SDS011;6189;52.526;13.390;2023-03-29T07:08:43;14.73;;;5.70;;
12253;SDS011;6189;52.526;13.390;2023-03-29T07:11:29;9.67;;;5.03;;
12253;SDS011;6189;52.526;13.390;2023-03-29T07:14:16;11.27;;;4.87;;
12253;SDS011;6189;52.526;13.390;2023-03-29T07:17:02;9.03;;;4.90;;
12253;SDS011;6189;52.526;13.390;2023-03-29T07:19:49;8.50;;;5.00;;
12253;SDS011;6189;52.526;13.390;2023-03-29T07:22:35;8.00;;;5.00;;
12253;SDS011;6189;52.526;13.390;2023-03-29T07:25:21;14.07;;;5.37;;
12253;SDS011;6189;52.526;13.390;2023-03-29T07:28:08;13.37;;;5.00;;
12253;SDS011;6189;52.526;13.390;2023-03-29T07:31:00;10.90;;;4.60;;
12253;SDS011;6189;52.526;13.390;2023-03-29T07:33:48;12.40;;;4.30;;
12253;SDS011;6189;52.526;13.390;2023-03-29T07:36:37;12.00;;;4.00;;
12253;SDS011;6189;52.526;13.390;2023-03-29T07:39:23;10.53;;;3.97;;
12253;SDS011;6189;52.526;13.390;2023-03-29T07:42:09;11.67;;;4.30;;
12253;SDS011;6189;52.526;13.390;2023-03-29T07:44:54;8.17;;;4.10;;
12253;SDS011;6189;52.526;13.390;2023-03-29T07:47:41;7.40;;;3.80;;
12253;SDS011;6189;52.526;13.390;2023-03-29T07:50:27;11.60;;;5.03;;
12253;SDS011;6189;52.526;13.390;2023-03-29T07:53:16;9.80;;;4.33;;
12253;SDS011;6189;52.526;13.390;2023-03-29T07:56:02;8.47;;;3.70;;
12253;SDS011;6189;52.526;13.390;2023-03-29T07:58:48;7.07;;;4.00;;
12253;SDS011;6189;52.526;13.390;2023-03-29T08:01:34;9.43;;;4.40;;
12253;SDS011;6189;52.526;13.390;2023-03-29T08:04:20;8.50;;;4.40;;
12253;SDS011;6189;52.526;13.390;2023-03-29T08:07:05;9.57;;;4.97;;
12253;SDS011;6189;52.526;13.390;2023-03-29T08:09:53;9.03;;;4.13;;
12253;SDS011;6189;52.526;13.390;2023-03-29T08:12:39;7.97;;;4.27;;
12253;SDS011;6189;52.526;13.390;2023-03-29T08:15:26;9.97;;;4.37;;
12253;SDS011;6189;52.526;13.390;2023-03-29T08:18:12;11.97;;;4.17;;
12253;SDS011;6189;52.526;13.390;2023-03-29T08:20:57;12.13;;;4.57;;
12253;SDS011;6189;52.526;13.390;2023-03-29T08:23:43;7.73;;;4.23;;
12253;SDS011;6189;52.526;13.390;2023-03-29T08:26:30;7.07;;;3.57;;
12253;SDS011;6189;52.526;13.390;2023-03-29T08:29:16;11.77;;;4.70;;
12253;SDS011;6189;52.526;13.390;2023-03-29T08:32:01;7.97;;;3.50;;
12253;SDS011;6189;52.526;13.390;2023-03-29T08:34:47;16.13;;;4.80;;
12253;SDS011;6189;52.526;13.390;2023-03-29T08:37:33;6.63;;;4.20;;
12253;SDS011;6189;52.526;13.390;2023-03-29T08:40:19;7.27;;;4.10;;
12253;SDS011;6189;52.526;13.390;2023-03-29T08:46:32;10.73;;;4.27;;
12253;SDS011;6189;52.526;13.390;2023-03-29T08:49:25;9.30;;;4.10;;
12253;SDS011;6189;52.526;13.390;2023-03-29T08:52:13;9.30;;;4.30;;
12253;SDS011;6189;52.526;13.390;2023-03-29T08:55:06;7.77;;;3.63;;
12253;SDS011;6189;52.526;13.390;2023-03-29T08:57:57;8.53;;;4.03;;
12253;SDS011;6189;52.526;13.390;2023-03-29T09:00:47;9.87;;;3.53;;
12253;SDS011;6189;52.526;13.390;2023-03-29T09:03:36;10.40;;;4.10;;
12253;SDS011;6189;52.526;13.390;2023-03-29T09:06:25;10.53;;;4.13;;
12253;SDS011;6189;52.526;13.390;2023-03-29T09:09:11;6.87;;;3.77;;
12253;SDS011;6189;52.526;13.390;2023-03-29T09:12:02;7.57;;;3.87;;
12253;SDS011;6189;52.526;13.390;2023-03-29T09:14:56;12.53;;;4.13;;
12253;SDS011;6189;52.526;13.390;2023-03-29T09:17:58;12.67;;;4.73;;
12253;SDS011;6189;52.526;13.390;2023-03-29T09:20:51;10.13;;;4.53;;
12253;SDS011;6189;52.526;13.390;2023-03-29T09:26:50;11.00;;;4.13;;
12253;SDS011;6189;52.526;13.390;2023-03-29T09:29:39;8.80;;;3.50;;
12253;SDS011;6189;52.526;13.390;2023-03-29T09:32:34;6.37;;;3.50;;
12253;SDS011;6189;52.526;13.390;2023-03-29T09:35:28;7.63;;;3.73;;
12253;SDS011;6189;52.526;13.390;2023-03-29T09:38:18;5.87;;;3.60;;
12253;SDS011;6189;52.526;13.390;2023-03-29T09:41:07;6.07;;;3.97;;
12253;SDS011;6189;52.526;13.390;2023-03-29T09:44:04;6.17;;;3.60;;
12253;SDS011;6189;52.526;13.390;2023-03-29T09:46:52;4.83;;;3.53;;
12253;SDS011;6189;52.526;13.390;2023-03-29T09:49:41;6.37;;;3.47;;
12253;SDS011;6189;52.526;13.390;2023-03-29T09:52:32;10.83;;;3.40;;
12253;SDS011;6189;52.526;13.390;2023-03-29T09:55:19;5.13;;;3.33;;
12253;SDS011;6189;52.526;13.390;2023-03-29T09:58:10;8.63;;;3.53;;
12253;SDS011;6189;52.526;13.390;2023-03-29T10:00:58;7.53;;;4.03;;
12253;SDS011;6189;52.526;13.390;2023-03-29T10:03:49;10.03;;;5.40;;
12253;SDS011;6189;52.526;13.390;2023-03-29T10:06:36;10.37;;;5.23;;
12253;SDS011;6189;52.526;13.390;2023-03-29T10:09:27;8.40;;;4.40;;
12253;SDS011;6189;52.526;13.390;2023-03-29T10:12:15;6.43;;;4.27;;
12253;SDS011;6189;52.526;13.390;2023-03-29T10:15:01;5.83;;;3.50;;
12253;SDS011;6189;52.526;13.390;2023-03-29T10:17:49;5.23;;;3.53;;
12253;SDS011;6189;52.526;13.390;2023-03-29T10:20:42;6.60;;;3.87;;
12253;SDS011;6189;52.526;13.390;2023-03-29T10:23:29;6.93;;;3.67;;
12253;SDS011;6189;52.526;13.390;2023-03-29T10:26:20;4.57;;;3.63;;
12253;SDS011;6189;52.526;13.390;2023-03-29T10:29:08;6.27;;;3.83;;
12253;SDS011;6189;52.526;13.390;2023-03-29T10:31:56;12.10;;;4.40;;
12253;SDS011;6189;52.526;13.390;2023-03-29T10:34:42;7.23;;;4.00;;
12253;SDS011;6189;52.526;13.390;2023-03-29T10:37:29;6.03;;;3.30;;
12253;SDS011;6189;52.526;13.390;2023-03-29T10:40:17;4.90;;;3.37;;
12253;SDS011;6189;52.526;13.390;2023-03-29T10:43:11;8.07;;;3.67;;
12253;SDS011;6189;52.526;13.390;2023-03-29T10:46:05;6.07;;;3.77;;
12253;SDS011;6189;52.526;13.390;2023-03-29T10:48:54;6.33;;;3.83;;
12253;SDS011;6189;52.526;13.390;2023-03-29T10:51:43;10.57;;;4.03;;
12253;SDS011;6189;52.526;13.390;2023-03-29T10:54:28;5.77;;;3.73;;
12253;SDS011;6189;52.526;13.390;2023-03-29T10:57:18;4.53;;;3.43;;
12253;SDS011;6189;52.526;13.390;2023-03-29T11:00:12;6.03;;;3.50;;
12253;SDS011;6189;52.526;13.390;2023-03-29T11:03:09;9.03;;;4.10;;
12253;SDS011;6189;52.526;13.390;2023-03-29T11:06:13;7.33;;;3.67;;
12253;SDS011;6189;52.526;13.390;2023-03-29T11:09:10;7.77;;;4.03;;
12253;SDS011;6189;52.526;13.390;2023-03-29T11:12:06;7.10;;;4.10;;
12253;SDS011;6189;52.526;13.390;2023-03-29T11:15:02;5.63;;;3.80;;
12253;SDS011;6189;52.526;13.390;2023-03-29T11:18:01;5.43;;;4.03;;
12253;SDS011;6189;52.526;13.390;2023-03-29T11:21:00;5.47;;;3.83;;
12253;SDS011;6189;52.526;13.390;2023-03-29T11:23:54;6.93;;;3.83;;
12253;SDS011;6189;52.526;13.390;2023-03-29T11:27:08;9.30;;;3.57;;
12253;SDS011;6189;52.526;13.390;2023-03-29T11:30:06;5.23;;;3.27;;
12253;SDS011;6189;52.526;13.390;2023-03-29T11:33:01;7.90;;;3.20;;
12253;SDS011;6189;52.526;13.390;2023-03-29T11:35:58;6.97;;;3.70;;
12253;SDS011;6189;52.526;13.390;2023-03-29T11:38:52;7.70;;;3.73;;
12253;SDS011;6189;52.526;13.390;2023-03-29T11:41:45;5.13;;;3.50;;
12253;SDS011;6189;52.526;13.390;2023-03-29T11:44:33;3.63;;;3.33;;
12253;SDS011;6189;52.526;13.390;2023-03-29T11:47:21;8.53;;;3.60;;
12253;SDS011;6189;52.526;13.390;2023-03-29T11:50:15;6.10;;;3.50;;
12253;SDS011;6189;52.526;13.390;2023-03-29T11:53:04;5.47;;;3.80;;
12253;SDS011;6189;52.526;13.390;2023-03-29T11:55:55;4.83;;;3.10;;
12253;SDS011;6189;52.526;13.390;2023-03-29T11:58:47;15.70;;;11.97;;
12253;SDS011;6189;52.526;13.390;2023-03-29T12:01:41;11.60;;;4.90;;
12253;SDS011;6189;52.526;13.390;2023-03-29T12:04:30;6.23;;;4.10;;
12253;SDS011;6189;52.526;13.390;2023-03-29T12:07:24;8.03;;;3.70;;
12253;SDS011;6189;52.526;13.390;2023-03-29T12:10:15;5.43;;;3.53;;
12253;SDS011;6189;52.526;13.390;2023-03-29T12:13:04;4.80;;;3.30;;
12253;SDS011;6189;52.526;13.390;2023-03-29T12:15:55;6.60;;;3.90;;
12253;SDS011;6189;52.526;13.390;2023-03-29T12:18:48;6.90;;;3.60;;
12253;SDS011;6189;52.526;13.390;2023-03-29T12:21:36;7.27;;;3.40;;
12253;SDS011;6189;52.526;13.390;2023-03-29T12:24:25;4.33;;;3.20;;
12253;SDS011;6189;52.526;13.390;2023-03-29T12:27:18;5.87;;;3.63;;
12253;SDS011;6189;52.526;13.390;2023-03-29T12:36:58;5.73;;;3.87;;
12253;SDS011;6189;52.526;13.390;2023-03-29T12:39:59;8.73;;;3.87;;
12253;SDS011;6189;52.526;13.390;2023-03-29T12:42:50;5.43;;;3.53;;
12253;SDS011;6189;52.526;13.390;2023-03-29T12:45:38;4.30;;;3.50;;
12253;SDS011;6189;52.526;13.390;2023-03-29T12:48:30;5.70;;;4.00;;
12253;SDS011;6189;52.526;13.390;2023-03-29T12:51:18;5.93;;;3.80;;
12253;SDS011;6189;52.526;13.390;2023-03-29T12:54:07;6.30;;;3.70;;
12253;SDS011;6189;52.526;13.390;2023-03-29T12:57:00;6.00;;;3.93;;
12253;SDS011;6189;52.526;13.390;2023-03-29T13:00:09;7.20;;;4.03;;
12253;SDS011;6189;52.526;13.390;2023-03-29T13:03:00;5.47;;;3.60;;
12253;SDS011;6189;52.526;13.390;2023-03-29T13:05:57;4.97;;;3.50;;
12253;SDS011;6189;52.526;13.390;2023-03-29T13:08:45;7.73;;;4.20;;
12253;SDS011;6189;52.526;13.390;2023-03-29T13:11:42;4.33;;;3.80;;
12253;SDS011;6189;52.526;13.390;2023-03-29T13:14:30;6.60;;;3.70;;
12253;SDS011;6189;52.526;13.390;2023-03-29T13:17:21;6.73;;;4.03;;
12253;SDS011;6189;52.526;13.390;2023-03-29T13:20:23;6.10;;;3.70;;
12253;SDS011;6189;52.526;13.390;2023-03-29T13:23:25;7.90;;;3.80;;
12253;SDS011;6189;52.526;13.390;2023-03-29T13:26:21;7.13;;;3.73;;
12253;SDS011;6189;52.526;13.390;2023-03-29T13:29:28;6.20;;;3.97;;
12253;SDS011;6189;52.526;13.390;2023-03-29T13:32:45;4.40;;;3.80;;
12253;SDS011;6189;52.526;13.390;2023-03-29T13:35:40;6.43;;;3.57;;
12253;SDS011;6189;52.526;13.390;2023-03-29T13:38:31;8.57;;;3.90;;
12253;SDS011;6189;52.526;13.390;2023-03-29T13:41:31;7.57;;;4.30;;
12253;SDS011;6189;52.526;13.390;2023-03-29T13:44:32;8.10;;;4.30;;
12253;SDS011;6189;52.526;13.390;2023-03-29T13:47:35;7.53;;;4.30;;
12253;SDS011;6189;52.526;13.390;2023-03-29T13:50:32;6.63;;;4.40;;
12253;SDS011;6189;52.526;13.390;2023-03-29T13:53:21;9.27;;;4.20;;
12253;SDS011;6189;52.526;13.390;2023-03-29T13:56:14;9.70;;;3.90;;
12253;SDS011;6189;52.526;13.390;2023-03-29T13:59:04;5.77;;;3.57;;
12253;SDS011;6189;52.526;13.390;2023-03-29T14:01:57;8.77;;;3.60;;
12253;SDS011;6189;52.526;13.390;2023-03-29T14:04:45;4.73;;;3.53;;
12253;SDS011;6189;52.526;13.390;2023-03-29T14:07:36;4.70;;;3.43;;
12253;SDS011;6189;52.526;13.390;2023-03-29T14:10:25;5.90;;;4.20;;
12253;SDS011;6189;52.526;13.390;2023-03-29T14:13:18;5.07;;;3.30;;
12253;SDS011;6189;52.526;13.390;2023-03-29T14:16:07;5.87;;;3.80;;
12253;SDS011;6189;52.526;13.390;2023-03-29T14:18:57;5.97;;;3.73;;
12253;SDS011;6189;52.526;13.390;2023-03-29T14:21:43;7.93;;;3.70;;
12253;SDS011;6189;52.526;13.390;2023-03-29T14:24:36;4.93;;;3.57;;
12253;SDS011;6189;52.526;13.390;2023-03-29T14:27:23;10.17;;;4.47;;
12253;SDS011;6189;52.526;13.390;2023-03-29T14:30:18;6.13;;;4.43;;
12253;SDS011;6189;52.526;13.390;2023-03-29T14:33:10;4.93;;;3.90;;
12253;SDS011;6189;52.526;13.390;2023-03-29T14:35:57;8.57;;;4.70;;
12253;SDS011;6189;52.526;13.390;2023-03-29T14:38:46;8.30;;;5.40;;
12253;SDS011;6189;52.526;13.390;2023-03-29T14:41:36;7.83;;;5.80;;
12253;SDS011;6189;52.526;13.390;2023-03-29T14:44:23;7.53;;;5.43;;
12253;SDS011;6189;52.526;13.390;2023-03-29T14:47:14;6.70;;;5.87;;
12253;SDS011;6189;52.526;13.390;2023-03-29T14:50:03;6.73;;;4.63;;
12253;SDS011;6189;52.526;13.390;2023-03-29T14:52:50;7.70;;;4.43;;
12253;SDS011;6189;52.526;13.390;2023-03-29T14:55:36;5.37;;;4.03;;
12253;SDS011;6189;52.526;13.390;2023-03-29T14:58:26;9.37;;;4.60;;
12253;SDS011;6189;52.526;13.390;2023-03-29T15:01:13;6.80;;;4.50;;
12253;SDS011;6189;52.526;13.390;2023-03-29T15:04:01;6.30;;;4.33;;
12253;SDS011;6189;52.526;13.390;2023-03-29T15:06:49;6.60;;;4.93;;
12253;SDS011;6189;52.526;13.390;2023-03-29T15:09:35;8.23;;;4.53;;
12253;SDS011;6189;52.526;13.390;2023-03-29T15:12:22;6.67;;;4.93;;
12253;SDS011;6189;52.526;13.390;2023-03-29T15:15:10;6.13;;;4.23;;
12253;SDS011;6189;52.526;13.390;2023-03-29T15:17:57;6.70;;;4.60;;
12253;SDS011;6189;52.526;13.390;2023-03-29T15:20:44;7.00;;;4.30;;
12253;SDS011;6189;52.526;13.390;2023-03-29T15:23:33;5.37;;;4.50;;
12253;SDS011;6189;52.526;13.390;2023-03-29T15:26:20;7.03;;;4.90;;
12253;SDS011;6189;52.526;13.390;2023-03-29T15:29:10;5.90;;;4.97;;
12253;SDS011;6189;52.526;13.390;2023-03-29T15:32:01;7.53;;;5.70;;
12253;SDS011;6189;52.526;13.390;2023-03-29T15:34:56;6.17;;;5.57;;
12253;SDS011;6189;52.526;13.390;2023-03-29T15:37:42;8.40;;;5.43;;
12253;SDS011;6189;52.526;13.390;2023-03-29T15:40:28;9.47;;;6.13;;
12253;SDS011;6189;52.526;13.390;2023-03-29T15:43:14;5.80;;;5.00;;
12253;SDS011;6189;52.526;13.390;2023-03-29T15:46:00;9.43;;;5.70;;
12253;SDS011;6189;52.526;13.390;2023-03-29T15:48:47;6.77;;;6.07;;
12253;SDS011;6189;52.526;13.390;2023-03-29T15:51:33;7.90;;;6.30;;
12253;SDS011;6189;52.526;13.390;2023-03-29T15:54:19;6.70;;;4.93;;
12253;SDS011;6189;52.526;13.390;2023-03-29T15:57:08;7.97;;;5.93;;
12253;SDS011;6189;52.526;13.390;2023-03-29T15:59:57;6.40;;;5.30;;
12253;SDS011;6189;52.526;13.390;2023-03-29T16:02:42;7.27;;;5.90;;
12253;SDS011;6189;52.526;13.390;2023-03-29T16:05:30;6.20;;;5.23;;
12253;SDS011;6189;52.526;13.390;2023-03-29T16:08:16;7.73;;;5.53;;
12253;SDS011;6189;52.526;13.390;2023-03-29T16:11:01;8.43;;;6.53;;
12253;SDS011;6189;52.526;13.390;2023-03-29T16:13:49;7.60;;;5.30;;
12253;SDS011;6189;52.526;13.390;2023-03-29T16:16:35;6.53;;;5.43;;
12253;SDS011;6189;52.526;13.390;2023-03-29T16:19:20;7.63;;;5.90;;
12253;SDS011;6189;52.526;13.390;2023-03-29T16:22:08;7.17;;;5.90;;
12253;SDS011;6189;52.526;13.390;2023-03-29T16:24:54;7.90;;;6.07;;
12253;SDS011;6189;52.526;13.390;2023-03-29T16:27:40;7.73;;;5.77;;
12253;SDS011;6189;52.526;13.390;2023-03-29T16:30:26;9.90;;;6.03;;
12253;SDS011;6189;52.526;13.390;2023-03-29T16:33:13;8.83;;;7.47;;
12253;SDS011;6189;52.526;13.390;2023-03-29T16:35:59;7.33;;;6.40;;
12253;SDS011;6189;52.526;13.390;2023-03-29T16:38:46;7.87;;;6.10;;
12253;SDS011;6189;52.526;13.390;2023-03-29T16:41:32;10.07;;;6.00;;
12253;SDS011;6189;52.526;13.390;2023-03-29T16:44:18;7.10;;;5.37;;
12253;SDS011;6189;52.526;13.390;2023-03-29T16:47:05;7.13;;;6.17;;
12253;SDS011;6189;52.526;13.390;2023-03-29T16:49:50;7.20;;;5.47;;
12253;SDS011;6189;52.526;13.390;2023-03-29T16:52:36;6.70;;;6.07;;
12253;SDS011;6189;52.526;13.390;2023-03-29T16:55:23;7.50;;;5.73;;
12253;SDS011;6189;52.526;13.390;2023-03-29T16:58:09;7.60;;;5.83;;
12253;SDS011;6189;52.526;13.390;2023-03-29T17:00:55;7.47;;;6.37;;
12253;SDS011;6189;52.526;13.390;2023-03-29T17:03:40;6.87;;;5.90;;
12253;SDS011;6189;52.526;13.390;2023-03-29T17:06:27;10.10;;;6.57;;
12253;SDS011;6189;52.526;13.390;2023-03-29T17:09:14;9.17;;;6.03;;